SASO2: Little River At Sasakwa, OK

Data processed at Sun Dec 16 2018 23:32


All information presented herein is the property of the government of the United States of America and may be revised or deleted at any time without prior notice.
Dissemination of this information without the expressed written consent of the Public Affairs Office, Tulsa District U.S. Army Corps of Engineers is strictly prohibited.
These data are gathered electronically and, as presented, have not undergone any form of quality control. These data are not guaranteed to be valid or correct.
Go to home page.
Go to station list.
Go to home page.

Upstream stations:

Downstream station:
Previous Day
Next Day
Current Day
    
SHEF ID:       SASO2     Little River near Sasakwa, OK
STATION TYPE:  

                STAGE  RIV-FLOW  BAT-LOAD
                   ft       cfs      volt
              Ccp-Rev   Ccp-Rev   Ccp-Rev
(US/Central)
12/16 00:00      6.38       684     12.33
12/16 01:00      6.32       666     12.33
12/16 02:00      6.25       645     12.33
12/16 03:00      6.18       625     12.33
12/16 04:00      6.12       608     12.25
12/16 05:00      6.06       591     12.25
12/16 06:00      5.99       571     12.25
12/16 07:00      5.93       555     12.25
12/16 08:00      5.88       541     12.25
12/16 09:00      5.82       525     12.25
12/16 10:00      5.77       512     12.41
12/16 11:00      5.72       499     12.49
12/16 12:00      5.66       484     12.65
12/16 13:00      5.60       468     12.81
12/16 14:00      5.56       459     12.89
12/16 15:00      5.54       454     12.81
12/16 16:00      5.47       436     12.73
12/16 17:00      5.44       429     12.65
12/16 18:00      5.39       417     12.57
12/16 19:00      5.35       408     12.57
12/16 20:00      5.33       403     12.49
12/16 21:00      5.29       394     12.41
12/16 22:00      5.25       385     12.41
12/16 23:00      ----      ----      ----